Time;durP1;ratioP1;P1;durP2;ratioP2;P2;SDS_P1;SDS_P2;PMS_P1;PMS_P2;Temp;Humidity;BMP_temperature;BMP_pressure;BME280_temperature;BME280_humidity;BME280_pressure;Samples;Min_cycle;Max_cycle;Signal;HPM_P1;HPM_P2
2021/12/19 00:08:28;;;;;;;7.03;6.18;;;8.60;99.90;;;;;;4954495;29;20046;-74
2021/12/19 00:10:27;;;;;;;6.85;5.90;;;8.50;99.90;;;;;;4953695;29;20154;-74
2021/12/19 00:12:54;;;;;;;6.38;5.22;;;8.40;99.90;;;;;;4954510;29;20102;-74
2021/12/19 00:15:20;;;;;;;6.25;5.45;;;8.30;99.90;;;;;;4954521;28;20035;-77
2021/12/19 00:17:45;;;;;;;6.55;5.38;;;8.20;99.90;;;;;;4953911;28;20050;-79
2021/12/19 00:20:11;;;;;;;5.47;4.93;;;8.20;99.90;;;;;;4954319;29;20039;-80
2021/12/19 00:22:37;;;;;;;5.90;4.60;;;8.20;99.90;;;;;;4936987;29;20023;-75
2021/12/19 00:25:04;;;;;;;6.38;5.45;;;8.20;99.90;;;;;;4936422;29;20027;-80
2021/12/19 00:27:30;;;;;;;6.22;5.15;;;8.20;99.90;;;;;;4936577;29;20046;-80
2021/12/19 00:29:56;;;;;;;7.93;4.43;;;8.10;99.90;;;;;;4953762;29;20055;-76
2021/12/19 00:32:21;;;;;;;5.15;4.65;;;8.10;99.90;;;;;;4953182;28;20055;-74
2021/12/19 00:34:50;;;;;;;5.68;4.45;;;8.10;99.90;;;;;;4936794;29;20119;-72
2021/12/19 00:37:20;;;;;;;5.20;4.70;;;8.10;99.90;;;;;;4953191;28;20031;-77
2021/12/19 00:39:46;;;;;;;5.15;4.65;;;8.20;99.90;;;;;;4953700;29;20066;-74
2021/12/19 00:42:12;;;;;;;5.38;4.78;;;8.20;99.90;;;;;;4954041;29;20480;-73
2021/12/19 00:44:38;;;;;;;4.90;4.32;;;8.20;99.90;;;;;;4952938;29;20065;-73
2021/12/19 00:47:07;;;;;;;6.35;4.82;;;8.20;99.90;;;;;;4936680;29;20542;-73
2021/12/19 00:49:33;;;;;;;5.88;5.00;;;8.10;99.90;;;;;;4953325;28;20030;-72
2021/12/19 00:51:59;;;;;;;5.38;4.57;;;8.10;99.90;;;;;;4953124;29;20059;-74
2021/12/19 00:54:25;;;;;;;6.18;4.97;;;8.10;99.90;;;;;;4953577;28;20507;-71
2021/12/19 00:56:50;;;;;;;6.57;5.00;;;8.10;99.90;;;;;;4953969;29;20027;-76
2021/12/19 00:59:17;;;;;;;5.95;5.35;;;8.10;99.90;;;;;;4952525;28;20535;-76
2021/12/19 01:01:45;;;;;;;5.38;4.78;;;8.10;99.90;;;;;;4953491;28;20439;-73
2021/12/19 01:04:12;;;;;;;8.43;6.07;;;8.10;99.90;;;;;;4953433;28;20361;-72
2021/12/19 01:06:40;;;;;;;6.75;5.72;;;8.00;99.90;;;;;;4952549;28;20043;-73
2021/12/19 01:09:06;;;;;;;7.47;5.70;;;8.00;99.90;;;;;;4953270;28;20130;-76
2021/12/19 01:11:33;;;;;;;7.40;6.13;;;7.90;99.90;;;;;;4935857;29;20549;-72
2021/12/19 01:13:59;;;;;;;6.05;4.78;;;7.90;99.90;;;;;;4952714;28;20034;-72
2021/12/19 01:16:25;;;;;;;5.57;4.60;;;7.90;99.90;;;;;;4953109;29;20396;-72
2021/12/19 01:18:51;;;;;;;6.38;5.78;;;7.90;99.90;;;;;;4953314;28;20031;-71
2021/12/19 01:21:18;;;;;;;5.40;4.85;;;7.90;99.90;;;;;;4952282;29;20468;-76
2021/12/19 01:23:44;;;;;;;5.30;4.72;;;7.90;99.90;;;;;;4936121;29;21021;-72
2021/12/19 01:26:11;;;;;;;5.95;5.00;;;8.00;99.90;;;;;;4953042;29;20512;-72
2021/12/19 01:28:38;;;;;;;5.10;4.38;;;8.00;99.90;;;;;;4934899;29;20523;-73
2021/12/19 01:31:05;;;;;;;5.97;3.95;;;8.00;99.90;;;;;;4935983;29;20462;-79
2021/12/19 01:33:31;;;;;;;5.70;4.30;;;8.00;99.90;;;;;;4934969;29;20034;-72
2021/12/19 01:35:57;;;;;;;6.07;4.80;;;8.00;99.90;;;;;;4952774;29;20023;-72
2021/12/19 01:38:23;;;;;;;4.90;4.38;;;8.00;99.90;;;;;;4952773;29;20023;-73
2021/12/19 01:40:48;;;;;;;4.63;3.72;;;8.00;99.90;;;;;;4951978;28;20094;-75
2021/12/19 01:43:20;;;;;;;7.07;4.97;;;8.10;99.90;;;;;;4952701;29;20027;-79
2021/12/19 01:45:46;;;;;;;7.20;5.40;;;8.00;99.90;;;;;;4952279;28;20036;-75
2021/12/19 01:48:12;;;;;;;6.35;5.43;;;8.00;99.90;;;;;;4935175;29;20023;-72
2021/12/19 01:50:39;;;;;;;7.55;5.60;;;8.00;99.90;;;;;;4952381;28;20027;-72
2021/12/19 01:53:07;;;;;;;9.48;5.78;;;8.00;99.90;;;;;;4952921;29;20051;-74
2021/12/19 01:55:33;;;;;;;6.63;5.43;;;8.00;99.90;;;;;;4952020;28;20031;-73
2021/12/19 01:57:59;;;;;;;7.28;5.90;;;8.00;99.90;;;;;;4935296;29;20024;-73
2021/12/19 02:00:26;;;;;;;7.35;5.75;;;8.10;99.90;;;;;;4952214;29;20035;-72
2021/12/19 02:02:53;;;;;;;9.13;7.15;;;8.10;99.90;;;;;;4952145;29;20054;-78
2021/12/19 02:05:19;;;;;;;9.13;7.13;;;8.00;99.90;;;;;;4952467;28;20031;-77
2021/12/19 02:07:47;;;;;;;10.07;7.82;;;8.00;99.90;;;;;;4934917;29;20035;-72
2021/12/19 02:10:16;;;;;;;8.82;6.82;;;8.00;99.90;;;;;;4951672;29;20457;-75
2021/12/19 02:12:44;;;;;;;9.55;6.95;;;8.00;99.90;;;;;;4935120;29;20023;-74
2021/12/19 02:15:10;;;;;;;9.90;8.18;;;8.00;99.90;;;;;;4935491;29;20159;-75
2021/12/19 02:17:35;;;;;;;9.68;7.25;;;8.00;99.90;;;;;;4934160;29;20384;-79
2021/12/19 02:20:02;;;;;;;8.82;7.15;;;8.00;99.90;;;;;;4952295;29;20050;-77
2021/12/19 02:22:27;;;;;;;7.28;6.53;;;8.00;99.90;;;;;;4951946;28;20026;-78
2021/12/19 02:24:54;;;;;;;7.70;6.45;;;7.90;99.90;;;;;;4934553;29;20382;-79
2021/12/19 02:27:25;;;;;;;7.60;6.20;;;8.00;99.90;;;;;;4952280;29;20023;-75
2021/12/19 02:29:51;;;;;;;6.80;5.40;;;8.00;99.90;;;;;;4931107;29;20052;-75
2021/12/19 02:32:16;;;;;;;5.40;4.80;;;8.00;99.90;;;;;;4932713;29;20059;-72
2021/12/19 02:34:44;;;;;;;6.28;4.75;;;8.00;99.90;;;;;;4932849;29;20024;-79
2021/12/19 02:37:45;;;;;;;4.32;3.72;;;7.90;99.90;;;;;;4932459;29;20043;-72
2021/12/19 02:48:12;;;;;;;4.15;2.90;;;7.90;99.90;;;;;;4933461;29;20039;-73
2021/12/19 02:50:48;;;;;;;4.03;2.90;;;7.90;99.90;;;;;;4931353;29;20468;-78
2021/12/19 02:53:17;;;;;;;3.38;3.00;;;7.90;99.90;;;;;;4931871;29;20496;-75
2021/12/19 02:55:43;;;;;;;3.03;2.67;;;7.90;99.90;;;;;;4933583;29;20019;-79
2021/12/19 02:58:09;;;;;;;3.00;2.70;;;7.90;99.90;;;;;;4934661;29;20015;-72
2021/12/19 03:00:35;;;;;;;2.60;2.40;;;7.90;99.90;;;;;;4936601;29;20039;-74
2021/12/19 03:03:01;;;;;;;3.60;2.90;;;7.90;99.90;;;;;;4936570;29;20023;-73
2021/12/19 03:05:30;;;;;;;3.33;3.03;;;7.90;99.90;;;;;;4935655;29;20369;-75
2021/12/19 03:07:56;;;;;;;3.15;2.85;;;8.00;99.90;;;;;;4936409;29;20024;-74
2021/12/19 03:13:22;;;;;;;3.40;3.10;;;8.00;99.90;;;;;;4936355;29;20640;-74
2021/12/19 03:18:32;;;;;;;3.92;3.50;;;8.00;99.90;;;;;;4935902;29;20067;-74
2021/12/19 03:20:58;;;;;;;5.28;3.22;;;7.90;99.90;;;;;;4935259;29;20040;-78
2021/12/19 03:23:24;;;;;;;4.15;3.75;;;7.90;99.90;;;;;;4936115;29;20035;-80
2021/12/19 03:25:49;;;;;;;4.18;3.78;;;7.90;99.90;;;;;;4934213;29;20042;-74
2021/12/19 03:28:15;;;;;;;5.43;4.05;;;8.00;99.90;;;;;;4936126;29;20492;-75
2021/12/19 03:30:44;;;;;;;4.45;3.50;;;8.00;99.90;;;;;;4954914;29;20039;-74
2021/12/19 03:33:11;;;;;;;4.22;3.60;;;8.00;99.90;;;;;;4937446;29;20570;-79
2021/12/19 03:35:37;;;;;;;4.07;3.67;;;8.00;99.90;;;;;;4937579;29;20027;-74
2021/12/19 03:38:06;;;;;;;3.85;3.30;;;8.00;99.90;;;;;;4955005;29;20027;-76
2021/12/19 03:40:51;;;;;;;3.45;2.90;;;8.00;99.90;;;;;;4954059;29;20039;-73
2021/12/19 03:43:19;;;;;;;3.38;3.08;;;8.00;99.90;;;;;;4936603;29;20548;-75
2021/12/19 03:45:45;;;;;;;4.03;3.17;;;8.10;99.90;;;;;;4947225;28;20787;-72
2021/12/19 03:48:13;;;;;;;3.83;3.17;;;8.20;99.90;;;;;;4971840;28;20105;-72
2021/12/19 03:50:42;;;;;;;3.47;3.03;;;8.10;99.90;;;;;;4971180;28;20045;-71
2021/12/19 03:53:08;;;;;;;3.60;3.00;;;8.20;99.90;;;;;;4956493;28;20042;-73
2021/12/19 03:55:34;;;;;;;3.10;2.80;;;8.20;99.90;;;;;;4955911;28;20445;-74
2021/12/19 03:58:02;;;;;;;2.85;2.55;;;8.20;99.90;;;;;;4956798;28;20106;-72
2021/12/19 04:00:28;;;;;;;2.90;2.60;;;8.20;99.90;;;;;;4956463;28;20043;-72
2021/12/19 04:03:04;;;;;;;3.08;2.78;;;8.30;99.90;;;;;;4956007;28;20067;-72
2021/12/19 04:05:30;;;;;;;4.50;3.35;;;8.30;99.90;;;;;;4946745;29;20092;-71
2021/12/19 04:07:56;;;;;;;3.88;3.20;;;8.30;99.90;;;;;;4936936;29;20611;-72
2021/12/19 04:10:23;;;;;;;3.72;3.00;;;8.20;99.90;;;;;;4953618;28;20027;-71
2021/12/19 04:12:50;;;;;;;3.55;3.22;;;8.20;99.90;;;;;;4953012;29;20109;-72
2021/12/19 04:15:16;;;;;;;3.00;2.67;;;8.20;99.90;;;;;;4953359;29;20034;-72
2021/12/19 04:17:42;;;;;;;3.60;3.13;;;8.30;99.90;;;;;;4937133;29;20038;-71
2021/12/19 04:20:09;;;;;;;4.38;3.63;;;8.30;99.90;;;;;;4937336;29;20031;-72
2021/12/19 04:22:34;;;;;;;4.30;3.60;;;8.30;99.90;;;;;;4953458;28;20567;-72
2021/12/19 04:25:00;;;;;;;5.38;3.90;;;8.30;99.90;;;;;;4953477;29;20122;-72
2021/12/19 04:27:26;;;;;;;4.65;3.45;;;8.30;99.90;;;;;;4953507;29;20019;-72
2021/12/19 04:29:53;;;;;;;4.95;4.45;;;8.30;99.90;;;;;;4936342;29;20039;-72
2021/12/19 04:32:25;;;;;;;3.97;3.38;;;8.30;99.90;;;;;;4953925;29;20027;-72
2021/12/19 04:34:51;;;;;;;5.53;3.95;;;8.30;99.90;;;;;;4937159;29;20063;-73
2021/12/19 04:40:12;;;;;;;5.15;4.05;;;8.30;99.90;;;;;;4953760;28;20058;-74
2021/12/19 04:51:05;;;;;;;5.55;4.35;;;8.20;99.90;;;;;;4952115;29;20047;-76
2021/12/19 05:06:34;;;;;;;4.80;4.28;;;8.20;99.90;;;;;;4952929;29;20119;-77
2021/12/19 05:14:34;;;;;;;7.20;5.47;;;8.20;99.90;;;;;;4953319;29;20507;-77
2021/12/19 05:17:07;;;;;;;7.20;6.05;;;8.20;99.90;;;;;;4953121;29;20070;-79
2021/12/19 05:22:35;;;;;;;7.28;5.63;;;8.20;99.90;;;;;;4920411;29;20037;-75
2021/12/19 05:25:08;;;;;;;7.20;5.78;;;8.20;99.90;;;;;;4953268;29;20047;-76
2021/12/19 05:27:34;;;;;;;6.68;5.75;;;8.20;99.90;;;;;;4934890;29;20031;-80
2021/12/19 05:30:00;;;;;;;5.97;4.95;;;8.20;99.90;;;;;;4953040;29;20480;-74
2021/12/19 05:32:25;;;;;;;6.00;5.05;;;8.30;99.90;;;;;;4934849;29;20102;-77
2021/12/19 05:34:51;;;;;;;6.05;5.28;;;8.30;99.90;;;;;;4953351;29;20035;-72
2021/12/19 05:45:29;;;;;;;7.35;5.65;;;8.40;99.90;;;;;;4952562;29;20038;-72
2021/12/19 05:47:55;;;;;;;6.88;5.32;;;8.40;99.90;;;;;;4947879;28;20388;-78
2021/12/19 05:50:22;;;;;;;6.53;5.40;;;8.40;99.90;;;;;;4949647;29;20034;-74
2021/12/19 05:52:49;;;;;;;6.13;5.03;;;8.40;99.90;;;;;;4952530;29;20102;-79
2021/12/19 05:55:16;;;;;;;7.38;5.55;;;8.50;99.90;;;;;;4952169;29;20384;-73
2021/12/19 05:57:42;;;;;;;6.22;5.20;;;8.50;99.90;;;;;;4935465;29;20023;-74
2021/12/19 06:00:12;;;;;;;6.38;5.68;;;8.40;99.90;;;;;;4952349;29;20503;-80
2021/12/19 06:02:39;;;;;;;4.20;3.80;;;8.40;99.90;;;;;;4934393;29;20051;-80
2021/12/19 06:05:06;;;;;;;4.80;4.38;;;8.40;99.90;;;;;;4952660;29;20515;-76
2021/12/19 06:07:31;;;;;;;4.22;3.50;;;8.40;99.90;;;;;;4952342;29;20546;-77
2021/12/19 06:09:59;;;;;;;3.20;2.90;;;8.40;99.90;;;;;;4934477;29;20031;-72
2021/12/19 06:12:25;;;;;;;2.80;2.50;;;8.40;99.90;;;;;;4934904;29;20023;-73
2021/12/19 06:14:51;;;;;;;2.30;1.95;;;8.40;99.90;;;;;;4934847;29;20030;-79
2021/12/19 06:17:16;;;;;;;1.77;1.67;;;8.30;99.90;;;;;;4952339;29;20117;-74
2021/12/19 06:19:42;;;;;;;2.03;1.83;;;8.30;99.90;;;;;;4952167;28;20028;-72
2021/12/19 06:22:08;;;;;;;3.00;1.70;;;8.20;99.90;;;;;;4951818;28;20027;-73
2021/12/19 06:24:34;;;;;;;2.58;1.83;;;8.20;99.90;;;;;;4934880;29;20043;-72
2021/12/19 06:27:00;;;;;;;1.85;1.70;;;8.20;99.90;;;;;;4952417;28;20066;-74
2021/12/19 06:29:28;;;;;;;2.30;1.90;;;8.20;99.90;;;;;;4933714;29;20051;-76
2021/12/19 06:31:54;;;;;;;1.35;1.23;;;8.20;99.90;;;;;;4956250;28;20051;-74
2021/12/19 06:34:19;;;;;;;1.40;1.30;;;8.10;99.90;;;;;;4972890;28;20077;-73
2021/12/19 06:36:45;;;;;;;1.65;1.50;;;8.20;99.90;;;;;;4971170;28;20027;-79
2021/12/19 06:39:10;;;;;;;1.70;1.35;;;8.20;99.90;;;;;;4939030;29;20473;-76
2021/12/19 06:41:36;;;;;;;1.50;1.33;;;8.20;99.90;;;;;;4955875;28;20043;-73
2021/12/19 06:44:03;;;;;;;1.63;1.52;;;8.10;99.90;;;;;;4955517;29;20019;-73
2021/12/19 06:46:29;;;;;;;1.27;1.17;;;8.00;99.90;;;;;;4955486;28;20042;-75
2021/12/19 06:48:55;;;;;;;1.20;1.10;;;7.90;99.90;;;;;;4959779;28;20023;-80
2021/12/19 06:51:21;;;;;;;1.10;1.00;;;7.90;99.90;;;;;;4957305;28;20031;-72
2021/12/19 06:53:47;;;;;;;1.20;1.10;;;7.90;99.90;;;;;;4975201;28;20022;-77
2021/12/19 06:56:13;;;;;;;1.13;1.08;;;7.90;99.90;;;;;;4939828;29;20523;-73
2021/12/19 06:58:38;;;;;;;1.15;1.05;;;7.80;99.90;;;;;;4969758;28;20073;-78
2021/12/19 07:01:04;;;;;;;0.88;0.88;;;7.90;99.90;;;;;;4956340;28;20050;-78
2021/12/19 07:03:29;;;;;;;0.70;0.70;;;7.90;99.90;;;;;;4955340;28;20039;-77
2021/12/19 07:05:55;;;;;;;2.10;0.93;;;7.80;99.90;;;;;;4955443;29;20073;-72
2021/12/19 07:08:21;;;;;;;0.80;0.80;;;7.80;99.90;;;;;;4938650;29;20065;-71
2021/12/19 07:10:48;;;;;;;1.13;1.02;;;7.90;99.90;;;;;;4938032;29;20035;-73
2021/12/19 07:13:19;;;;;;;1.25;1.05;;;7.90;99.90;;;;;;4954274;28;20023;-72
2021/12/19 07:15:46;;;;;;;1.10;1.00;;;7.90;99.90;;;;;;4952180;29;20146;-75
2021/12/19 07:18:11;;;;;;;0.90;0.90;;;7.90;99.90;;;;;;4955046;29;20027;-74
2021/12/19 07:20:41;;;;;;;1.13;1.02;;;7.90;99.90;;;;;;4952982;28;20045;-74
2021/12/19 07:23:07;;;;;;;1.38;1.27;;;7.90;99.90;;;;;;4955240;29;20031;-73
2021/12/19 07:25:32;;;;;;;1.30;1.20;;;7.90;99.90;;;;;;4952511;29;20103;-72
2021/12/19 07:27:58;;;;;;;33.28;2.40;;;7.90;99.90;;;;;;4953292;28;20511;-75
2021/12/19 07:30:25;;;;;;;2.95;2.65;;;7.90;99.90;;;;;;4954442;29;20055;-78
2021/12/19 07:32:51;;;;;;;3.33;3.03;;;7.90;99.90;;;;;;4937500;29;20023;-75
2021/12/19 07:35:17;;;;;;;2.92;2.65;;;7.90;99.90;;;;;;4953321;29;20042;-77
2021/12/19 07:37:45;;;;;;;1.65;1.55;;;7.90;99.90;;;;;;4954340;28;20031;-77
2021/12/19 07:40:15;;;;;;;1.50;1.40;;;8.00;99.90;;;;;;4953135;29;20051;-73
2021/12/19 07:42:42;;;;;;;1.50;1.40;;;8.00;99.90;;;;;;4936954;29;20555;-75
2021/12/19 07:45:08;;;;;;;3.15;2.28;;;8.00;99.90;;;;;;4955356;28;20086;-72
2021/12/19 07:47:33;;;;;;;3.05;2.75;;;8.10;99.90;;;;;;4952963;29;20019;-74
2021/12/19 07:49:59;;;;;;;2.78;2.58;;;8.10;99.90;;;;;;4954367;28;20093;-75
2021/12/19 07:52:25;;;;;;;1.88;1.77;;;8.20;99.90;;;;;;4950442;28;20115;-75
2021/12/19 07:54:50;;;;;;;1.73;1.30;;;8.10;99.90;;;;;;4951548;28;20050;-77
2021/12/19 07:57:17;;;;;;;1.48;1.38;;;8.10;99.90;;;;;;4956233;28;20027;-77
2021/12/19 07:59:42;;;;;;;1.35;1.25;;;8.20;99.90;;;;;;4936834;29;20037;-75
2021/12/19 08:02:08;;;;;;;1.77;1.50;;;8.20;99.90;;;;;;4935803;29;20030;-74
2021/12/19 08:04:33;;;;;;;1.60;1.50;;;8.20;99.90;;;;;;4935834;29;20031;-76
2021/12/19 08:06:59;;;;;;;2.53;1.30;;;8.20;99.90;;;;;;4953011;29;20082;-77
2021/12/19 08:09:36;;;;;;;1.30;1.20;;;8.20;99.90;;;;;;4952529;28;20042;-74
2021/12/19 08:12:06;;;;;;;1.15;1.08;;;8.20;99.90;;;;;;4973814;28;20026;-76
2021/12/19 08:14:32;;;;;;;1.23;1.10;;;8.20;99.90;;;;;;4956153;28;20115;-74
2021/12/19 08:16:58;;;;;;;1.50;1.40;;;8.20;99.90;;;;;;4955788;28;20380;-73
2021/12/19 08:19:25;;;;;;;1.40;1.30;;;8.30;99.90;;;;;;4931968;29;20492;-73
2021/12/19 08:21:52;;;;;;;1.10;1.10;;;8.30;99.90;;;;;;4934429;29;20505;-74
2021/12/19 08:24:18;;;;;;;1.30;1.20;;;8.30;99.90;;;;;;4947101;28;20432;-76
2021/12/19 08:26:45;;;;;;;1.42;1.33;;;8.40;99.90;;;;;;4947671;28;20026;-76
2021/12/19 08:29:11;;;;;;;1.33;1.23;;;8.40;99.90;;;;;;4953409;28;20051;-74
2021/12/19 08:31:38;;;;;;;1.50;1.40;;;8.40;99.90;;;;;;4935981;29;20039;-74
2021/12/19 08:34:04;;;;;;;1.67;1.20;;;8.40;99.90;;;;;;4953717;28;20034;-76
2021/12/19 08:36:29;;;;;;;1.98;1.25;;;8.40;99.90;;;;;;4932897;29;20035;-80
2021/12/19 08:38:55;;;;;;;1.02;1.02;;;8.40;99.90;;;;;;4932333;29;20023;-74
2021/12/19 08:41:21;;;;;;;1.05;1.00;;;8.50;99.90;;;;;;4932892;29;20043;-74
2021/12/19 08:43:46;;;;;;;1.10;1.00;;;8.40;99.90;;;;;;4937136;29;20047;-75
2021/12/19 08:46:12;;;;;;;1.30;1.20;;;8.50;99.90;;;;;;4935965;29;20023;-74
2021/12/19 08:48:39;;;;;;;1.23;1.13;;;8.40;99.90;;;;;;4952600;28;20023;-75
2021/12/19 08:51:05;;;;;;;0.90;0.90;;;8.50;99.90;;;;;;4952948;29;20027;-80
2021/12/19 08:53:31;;;;;;;1.30;0.85;;;8.50;99.90;;;;;;4952211;28;20039;-74
2021/12/19 08:55:57;;;;;;;0.80;0.80;;;8.50;99.90;;;;;;4935745;29;20031;-74
2021/12/19 08:58:22;;;;;;;1.38;0.90;;;8.40;99.90;;;;;;4952976;29;20539;-78
2021/12/19 09:00:49;;;;;;;0.82;0.82;;;8.40;99.90;;;;;;4953567;29;20039;-74
2021/12/19 09:03:15;;;;;;;0.90;0.90;;;8.40;99.90;;;;;;4953371;28;20082;-79
2021/12/19 09:05:40;;;;;;;1.10;1.00;;;8.50;99.90;;;;;;4935894;29;20097;-76
2021/12/19 09:08:06;;;;;;;1.10;0.95;;;8.50;99.90;;;;;;4953283;29;20524;-79
2021/12/19 09:10:33;;;;;;;1.08;1.08;;;8.50;99.90;;;;;;4952323;29;20066;-79
2021/12/19 09:12:59;;;;;;;1.20;1.10;;;8.50;99.90;;;;;;4953521;28;20023;-77
2021/12/19 09:15:25;;;;;;;0.95;0.95;;;8.40;99.90;;;;;;4951845;29;20543;-75
2021/12/19 09:17:50;;;;;;;1.80;1.13;;;8.40;99.90;;;;;;4935663;29;20023;-78
2021/12/19 09:20:16;;;;;;;1.60;1.50;;;8.40;99.90;;;;;;4951756;29;20041;-76
2021/12/19 09:22:42;;;;;;;2.75;1.63;;;8.50;99.90;;;;;;4953121;28;20023;-79
2021/12/19 09:25:08;;;;;;;1.70;1.60;;;8.40;99.90;;;;;;4952792;28;20071;-77
2021/12/19 09:27:35;;;;;;;3.65;1.60;;;8.40;99.90;;;;;;4952904;29;20038;-76
2021/12/19 09:30:01;;;;;;;3.00;1.67;;;8.40;99.90;;;;;;4952773;29;20051;-75
2021/12/19 09:32:27;;;;;;;3.17;1.42;;;8.40;99.90;;;;;;4950531;28;20033;-78
2021/12/19 09:34:53;;;;;;;3.05;2.20;;;8.40;99.90;;;;;;4953197;28;20476;-74
2021/12/19 09:37:19;;;;;;;1.98;1.85;;;8.40;99.90;;;;;;4935492;29;20074;-75
2021/12/19 09:39:51;;;;;;;4.00;2.58;;;8.40;99.90;;;;;;4950971;28;20035;-75
2021/12/19 09:42:20;;;;;;;3.03;1.90;;;8.40;99.90;;;;;;4953113;29;20031;-77
2021/12/19 09:44:46;;;;;;;2.38;2.17;;;8.40;99.90;;;;;;4952975;28;20015;-74
2021/12/19 09:47:15;;;;;;;3.42;2.00;;;8.40;99.90;;;;;;4951008;28;20029;-75
2021/12/19 09:49:40;;;;;;;2.42;2.00;;;8.50;99.90;;;;;;4952762;29;20172;-76
2021/12/19 09:52:09;;;;;;;3.20;2.08;;;8.50;99.90;;;;;;4951143;29;20058;-77
2021/12/19 09:54:39;;;;;;;3.20;1.80;;;8.50;99.90;;;;;;4950661;28;20024;-79
2021/12/19 09:57:05;;;;;;;3.33;1.90;;;8.50;99.90;;;;;;4951469;29;20082;-77
2021/12/19 09:59:31;;;;;;;3.97;2.17;;;8.50;99.90;;;;;;4950982;29;20035;-79
2021/12/19 10:01:57;;;;;;;3.58;2.00;;;8.40;99.90;;;;;;4951048;29;20087;-76
2021/12/19 10:04:37;;;;;;;3.42;1.90;;;8.40;99.90;;;;;;4952903;29;20488;-80
2021/12/19 10:07:14;;;;;;;4.10;2.50;;;8.50;99.90;;;;;;4951597;28;20039;-75
2021/12/19 10:10:03;;;;;;;3.42;2.45;;;8.50;99.90;;;;;;4951310;28;20106;-75
2021/12/19 10:14:57;;;;;;;4.15;2.72;;;8.50;99.90;;;;;;4951794;29;20035;-80
2021/12/19 10:17:22;;;;;;;3.65;2.70;;;8.50;99.90;;;;;;4952103;28;20480;-76
2021/12/19 10:19:54;;;;;;;4.57;2.65;;;8.50;99.90;;;;;;4951070;29;20121;-78
2021/12/19 10:22:34;;;;;;;4.63;3.15;;;8.50;99.90;;;;;;4952128;29;20035;-78
2021/12/19 10:25:25;;;;;;;7.47;3.20;;;8.60;99.90;;;;;;4952334;29;20106;-76
2021/12/19 10:28:00;;;;;;;6.40;2.85;;;8.60;99.90;;;;;;4951051;29;20106;-79
2021/12/19 10:30:43;;;;;;;5.63;2.70;;;8.60;99.90;;;;;;4934500;29;20094;-75
2021/12/19 10:33:14;;;;;;;6.75;2.90;;;8.50;99.90;;;;;;4952915;29;20023;-75
2021/12/19 10:35:47;;;;;;;4.72;2.97;;;8.50;99.90;;;;;;4950285;28;20038;-77
2021/12/19 10:38:22;;;;;;;5.57;3.42;;;8.50;99.90;;;;;;4951069;29;20075;-75
2021/12/19 10:41:08;;;;;;;4.95;2.72;;;8.50;99.90;;;;;;4952317;29;20542;-79
2021/12/19 10:43:41;;;;;;;4.63;2.80;;;8.50;99.90;;;;;;4951419;29;20023;-79
2021/12/19 10:46:09;;;;;;;5.70;3.13;;;8.50;99.90;;;;;;4950868;28;20027;-75
2021/12/19 10:48:43;;;;;;;7.13;3.30;;;8.40;99.90;;;;;;4952082;29;20026;-74
2021/12/19 10:51:19;;;;;;;5.50;2.58;;;8.50;99.90;;;;;;4950914;29;20032;-75
2021/12/19 10:53:45;;;;;;;5.00;2.65;;;8.50;99.90;;;;;;4952068;29;20519;-79
2021/12/19 10:56:17;;;;;;;4.72;2.78;;;8.50;99.90;;;;;;4950337;29;20032;-76
2021/12/19 10:58:55;;;;;;;5.25;3.13;;;8.60;99.90;;;;;;4950653;28;20476;-80
2021/12/19 11:01:30;;;;;;;4.93;2.55;;;8.60;99.90;;;;;;4951104;29;20031;-79
2021/12/19 11:03:59;;;;;;;4.68;2.75;;;8.60;99.90;;;;;;4950071;28;20532;-76
2021/12/19 11:06:36;;;;;;;3.53;2.38;;;8.60;99.90;;;;;;4951796;29;20038;-74
2021/12/19 11:09:14;;;;;;;6.22;3.33;;;8.60;99.90;;;;;;4951666;28;20023;-76
2021/12/19 11:11:52;;;;;;;5.78;2.83;;;8.60;99.90;;;;;;4950380;29;20054;-76
2021/12/19 11:14:28;;;;;;;6.38;3.42;;;8.60;99.90;;;;;;4951836;29;20420;-77
2021/12/19 11:17:03;;;;;;;6.18;3.10;;;8.60;99.90;;;;;;4951032;28;20114;-77
2021/12/19 11:19:29;;;;;;;4.93;3.42;;;8.60;99.90;;;;;;4953795;28;20420;-75
2021/12/19 11:21:55;;;;;;;5.93;3.20;;;8.50;99.90;;;;;;4938076;28;20031;-78
2021/12/19 11:24:23;;;;;;;5.38;3.25;;;8.50;99.90;;;;;;4953383;28;20078;-78
2021/12/19 11:26:54;;;;;;;6.80;3.22;;;8.60;99.90;;;;;;4955358;29;20118;-79
2021/12/19 11:29:21;;;;;;;3.30;2.70;;;8.60;99.90;;;;;;4955508;28;20043;-80
2021/12/19 11:31:51;;;;;;;7.35;4.53;;;8.60;99.90;;;;;;4936965;29;20130;-76
2021/12/19 11:34:40;;;;;;;7.63;3.38;;;8.60;99.90;;;;;;4955090;29;20027;-78
2021/12/19 11:37:06;;;;;;;6.50;3.22;;;8.60;99.90;;;;;;4954005;28;20027;-77
2021/12/19 11:39:34;;;;;;;7.45;3.80;;;8.60;99.90;;;;;;4953867;28;20046;-76
2021/12/19 11:42:36;;;;;;;7.35;3.75;;;8.60;99.90;;;;;;4954727;29;20062;-75
2021/12/19 11:45:40;;;;;;;5.53;3.70;;;8.60;99.90;;;;;;4877555;29;20029;-76
2021/12/19 11:48:17;;;;;;;8.02;4.47;;;8.60;99.90;;;;;;4953836;29;20023;-76
2021/12/19 11:50:50;;;;;;;6.82;3.88;;;8.60;99.90;;;;;;4953541;29;20496;-75
2021/12/19 11:53:15;;;;;;;6.00;3.40;;;8.60;99.90;;;;;;4952799;28;20046;-75
2021/12/19 11:55:43;;;;;;;9.02;3.72;;;8.60;99.90;;;;;;4954723;29;20113;-75
2021/12/19 11:58:08;;;;;;;7.57;3.38;;;8.60;99.90;;;;;;4955328;28;20027;-78
2021/12/19 12:00:38;;;;;;;6.03;3.28;;;8.60;99.90;;;;;;4952313;29;20062;-77
2021/12/19 12:03:12;;;;;;;3.97;2.95;;;8.60;99.90;;;;;;4954589;29;20361;-79
2021/12/19 12:05:43;;;;;;;6.00;3.15;;;8.60;99.90;;;;;;4954480;28;20037;-77
2021/12/19 12:08:19;;;;;;;6.88;3.83;;;8.50;99.90;;;;;;4954192;28;20103;-75
2021/12/19 12:10:51;;;;;;;7.60;2.90;;;8.60;99.90;;;;;;4954715;29;20035;-80
2021/12/19 12:13:40;;;;;;;6.38;2.97;;;8.60;99.90;;;;;;4954558;29;20027;-74
2021/12/19 12:16:11;;;;;;;6.40;2.63;;;8.60;99.90;;;;;;4954633;28;20023;-77
2021/12/19 12:18:40;;;;;;;5.07;3.53;;;8.70;99.90;;;;;;4952761;28;20039;-75
2021/12/19 12:21:18;;;;;;;6.20;3.10;;;8.70;99.90;;;;;;4952193;28;20140;-79
2021/12/19 12:23:59;;;;;;;3.88;2.63;;;8.80;99.90;;;;;;4953115;28;20028;-77
2021/12/19 12:26:34;;;;;;;4.13;2.70;;;8.80;99.90;;;;;;4952757;29;20026;-73
2021/12/19 12:29:00;;;;;;;4.55;2.30;;;8.80;99.90;;;;;;4951607;28;20047;-80
2021/12/19 12:31:27;;;;;;;2.70;2.17;;;8.80;99.90;;;;;;4952808;28;20067;-76
2021/12/19 12:33:53;;;;;;;3.50;2.28;;;8.90;99.90;;;;;;4954371;28;20031;-75
2021/12/19 12:36:20;;;;;;;3.95;2.45;;;8.90;99.90;;;;;;4952285;29;20046;-80
2021/12/19 12:38:50;;;;;;;4.72;2.50;;;8.90;99.90;;;;;;4952518;29;20024;-78
2021/12/19 12:42:03;;;;;;;4.28;2.42;;;8.90;99.90;;;;;;4953835;29;20050;-80
2021/12/19 12:44:17;;;;;;;2.45;2.25;;;8.90;99.90;;;;;;4947104;28;20038;-75
2021/12/19 12:46:43;;;;;;;4.47;2.78;;;8.90;99.90;;;;;;4954126;28;20051;-80
2021/12/19 12:49:28;;;;;;;4.43;2.15;;;8.90;99.90;;;;;;4953371;29;20098;-76
2021/12/19 12:51:57;;;;;;;4.32;2.65;;;8.80;99.90;;;;;;4952494;29;20019;-75
2021/12/19 12:54:27;;;;;;;4.05;2.70;;;8.90;99.90;;;;;;4953573;28;20031;-76
2021/12/19 12:56:55;;;;;;;4.15;2.45;;;8.90;99.90;;;;;;4952134;28;20015;-74
2021/12/19 12:59:27;;;;;;;4.60;2.60;;;8.90;99.90;;;;;;4952074;28;20110;-76
2021/12/19 13:02:06;;;;;;;3.17;2.53;;;8.90;99.90;;;;;;4952484;29;20082;-79
2021/12/19 13:04:32;;;;;;;7.70;3.25;;;9.00;99.90;;;;;;4952580;28;20038;-74
2021/12/19 13:07:25;;;;;;;4.75;3.13;;;9.00;99.90;;;;;;4952316;29;20023;-80
2021/12/19 13:09:57;;;;;;;4.95;3.47;;;9.00;99.90;;;;;;4948484;29;20043;-79
2021/12/19 13:12:32;;;;;;;4.70;3.20;;;9.00;99.90;;;;;;4953431;28;20062;-74
2021/12/19 13:15:05;;;;;;;3.97;2.85;;;9.00;99.90;;;;;;4951869;28;20380;-78
2021/12/19 13:17:44;;;;;;;5.20;3.40;;;9.00;99.90;;;;;;4952347;29;20028;-80
2021/12/19 13:20:17;;;;;;;4.85;3.30;;;9.00;99.90;;;;;;4952995;28;20020;-77
2021/12/19 13:22:52;;;;;;;3.00;2.70;;;9.00;99.90;;;;;;4953286;28;20387;-78
2021/12/19 13:25:22;;;;;;;7.75;2.70;;;9.00;99.90;;;;;;4952291;28;20493;-79
2021/12/19 13:27:51;;;;;;;4.57;2.72;;;9.00;99.90;;;;;;4953097;28;20037;-78
2021/12/19 13:30:23;;;;;;;2.90;2.25;;;8.90;99.90;;;;;;4952742;29;20043;-76
2021/12/19 13:32:57;;;;;;;3.40;2.47;;;8.90;99.90;;;;;;4951441;29;20472;-77
2021/12/19 13:35:35;;;;;;;3.90;2.30;;;8.90;99.90;;;;;;4952096;28;20047;-78
2021/12/19 13:38:28;;;;;;;3.78;2.22;;;8.90;99.90;;;;;;4950797;28;20514;-79
2021/12/19 13:40:58;;;;;;;3.15;2.20;;;8.90;99.90;;;;;;4952249;28;20079;-75
2021/12/19 13:43:31;;;;;;;3.58;2.30;;;9.00;99.90;;;;;;4952788;28;20030;-77
2021/12/19 13:46:11;;;;;;;3.25;2.30;;;8.90;99.90;;;;;;4950765;29;20078;-75
2021/12/19 13:48:39;;;;;;;2.83;2.05;;;8.90;99.90;;;;;;4950970;28;20034;-76
2021/12/19 13:51:15;;;;;;;3.35;2.30;;;8.90;99.90;;;;;;4953025;29;20023;-78
2021/12/19 13:53:46;;;;;;;3.30;2.70;;;8.90;99.90;;;;;;4950911;28;20038;-79
2021/12/19 13:56:36;;;;;;;7.45;3.30;;;8.80;99.90;;;;;;4952528;28;20023;-75
2021/12/19 13:59:20;;;;;;;5.45;2.47;;;8.80;99.90;;;;;;4934040;29;20039;-73
2021/12/19 14:01:46;;;;;;;4.43;1.83;;;8.80;99.90;;;;;;4952396;28;20059;-75
2021/12/19 14:04:23;;;;;;;4.00;2.20;;;8.80;99.90;;;;;;4951835;29;20035;-75
2021/12/19 14:06:50;;;;;;;3.83;1.90;;;8.80;99.90;;;;;;4950740;28;20061;-74
2021/12/19 14:09:19;;;;;;;1.92;1.73;;;8.80;99.90;;;;;;4951082;28;20020;-74
2021/12/19 14:11:49;;;;;;;5.25;2.03;;;8.80;99.90;;;;;;4935099;29;20058;-75